Pierport, Michigan
Current Conditions -  °F | °C
As of 11:35 PM on Wednesday 26 Nov 2014 (Local Time) from KMBL Reporting Station
Overcast Overcast  
Wind Chill: 28°   Ceiling: 2300
Heat Index: 28°   Visibility: 9mi
Dew Point: 25°   Wind: 0mph
Humidity: 86%   Direction: NA
Pressure: 30.15"   Gusts: NA
Location:  44.4397°N, 86.1119°W
Report Text: KMBL 270435Z AUTO 00000KT 9SM OVC023 M02/M04 A3015 RMK AO1
Loading
Personal Weather Stations






























Interactive Weather Map New forecast layout! Learn more

10-Day Weather Forecast

Advertisements
Track Severe Weather on mobile